Lotus, Indiana
Current Conditions -  °F | °C
As of 9:35 AM on Saturday 22 Nov 2014 (Local Time) from KI67 Reporting Station
Overcast Overcast  
Wind Chill: 32°   Ceiling: 4900
Heat Index: 36°   Visibility: 10mi
Dew Point: 32°   Wind: 5mph
Humidity: 87%   Direction: 190°S
Pressure: 30.27"   Gusts: NA
Location:  39.6086°N, 84.9137°W
Report Text: KI67 221435Z AUTO 19004KT 10SM OVC049 02/00 A3027 RMK AO1
Loading
Personal Weather Stations






























Interactive Weather Map New forecast layout! Learn more

10-Day Weather Forecast

Advertisements
Track Severe Weather on mobile